Time;durP1;ratioP1;P1;durP2;ratioP2;P2;SDS_P1;SDS_P2;PMS_P1;PMS_P2;Temp;Humidity;BMP_temperature;BMP_pressure;BME280_temperature;BME280_humidity;BME280_pressure;Samples;Min_cycle;Max_cycle;Signal;HPM_P1;HPM_P2
2023/05/30 00:01:06;;;;;;;22.70;9.80;;;18.20;99.90;;;;;;4965381;28;20632;-74
2023/05/30 00:03:35;;;;;;;26.67;10.07;;;18.20;99.90;;;;;;4962514;28;20214;-74
2023/05/30 00:06:02;;;;;;;24.93;10.60;;;18.20;99.90;;;;;;4965175;28;20187;-75
2023/05/30 00:08:29;;;;;;;21.90;10.77;;;18.20;99.90;;;;;;4958343;28;20198;-74
2023/05/30 00:10:55;;;;;;;25.00;10.97;;;18.20;99.90;;;;;;4962917;28;20718;-74
2023/05/30 00:13:22;;;;;;;25.80;11.30;;;18.20;99.90;;;;;;4977170;28;20209;-75
2023/05/30 00:15:51;;;;;;;21.20;10.87;;;18.20;99.90;;;;;;4961618;28;20209;-75
2023/05/30 00:18:17;;;;;;;22.03;10.83;;;18.20;99.90;;;;;;4961581;28;20781;-74
2023/05/30 00:20:44;;;;;;;20.23;10.57;;;18.20;99.90;;;;;;4961414;28;20198;-74
2023/05/30 00:23:11;;;;;;;21.50;11.77;;;18.20;99.90;;;;;;4964050;28;20233;-74
2023/05/30 00:25:37;;;;;;;26.73;11.40;;;18.20;99.90;;;;;;4957402;28;21093;-74
2023/05/30 00:28:07;;;;;;;24.00;11.70;;;18.20;99.90;;;;;;4962343;28;20802;-74
2023/05/30 00:30:35;;;;;;;23.07;10.90;;;18.20;99.90;;;;;;4945331;28;20206;-74
2023/05/30 00:33:02;;;;;;;17.07;11.00;;;18.20;99.90;;;;;;4957435;28;20593;-74
2023/05/30 00:35:28;;;;;;;21.20;11.23;;;18.10;99.90;;;;;;4943045;28;20292;-74
2023/05/30 00:37:55;;;;;;;21.60;10.77;;;18.00;99.90;;;;;;4958883;28;20207;-75
2023/05/30 00:40:22;;;;;;;18.60;10.70;;;17.90;99.90;;;;;;4959465;28;20194;-75
2023/05/30 00:42:48;;;;;;;20.60;10.53;;;17.90;99.90;;;;;;4954053;28;20197;-74
2023/05/30 00:45:14;;;;;;;22.47;10.93;;;17.90;99.90;;;;;;4958411;28;20720;-75
2023/05/30 00:47:40;;;;;;;27.63;11.53;;;17.90;99.90;;;;;;4958046;28;20187;-74
2023/05/30 00:50:08;;;;;;;18.67;10.67;;;17.90;99.90;;;;;;4962807;28;20724;-74
2023/05/30 00:52:35;;;;;;;19.03;10.83;;;17.90;99.90;;;;;;4961057;28;20285;-75
2023/05/30 00:55:03;;;;;;;24.13;10.47;;;17.90;99.90;;;;;;4976739;28;20190;-74
2023/05/30 00:57:33;;;;;;;20.57;11.07;;;17.90;99.90;;;;;;4955681;28;20228;-75
2023/05/30 01:00:04;;;;;;;25.07;10.70;;;17.90;99.90;;;;;;4961889;28;20232;-74
2023/05/30 01:02:35;;;;;;;19.30;11.13;;;17.90;99.90;;;;;;4958252;28;20194;-75
2023/05/30 01:05:01;;;;;;;22.53;11.80;;;17.90;99.90;;;;;;4956007;28;20690;-75
2023/05/30 01:07:28;;;;;;;23.80;11.23;;;17.90;99.90;;;;;;4986712;28;20199;-75
2023/05/30 01:09:55;;;;;;;28.50;11.63;;;17.90;99.90;;;;;;4961191;28;20190;-75
2023/05/30 01:12:40;;;;;;;23.13;11.43;;;17.90;99.90;;;;;;4992564;28;20221;-75
2023/05/30 01:15:17;;;;;;;25.27;11.57;;;17.80;99.90;;;;;;4956853;28;20197;-75
2023/05/30 01:18:16;;;;;;;15.97;10.87;;;17.80;99.90;;;;;;4958659;28;20212;-75
2023/05/30 01:20:49;;;;;;;29.47;11.13;;;17.80;99.90;;;;;;4961726;28;20221;-75
2023/05/30 01:23:55;;;;;;;24.07;11.97;;;17.80;99.90;;;;;;4961217;28;20712;-75
2023/05/30 01:26:36;;;;;;;22.67;11.43;;;17.90;99.90;;;;;;4957192;28;20200;-75
2023/05/30 01:29:06;;;;;;;22.50;11.43;;;17.80;99.90;;;;;;4965295;28;20216;-75
2023/05/30 01:31:33;;;;;;;23.70;11.77;;;17.90;99.90;;;;;;4972885;28;20191;-75
2023/05/30 01:34:01;;;;;;;16.07;10.93;;;17.90;99.90;;;;;;4962101;28;20204;-74
2023/05/30 01:36:30;;;;;;;19.63;11.13;;;17.90;99.90;;;;;;4947290;28;20193;-74
2023/05/30 01:38:57;;;;;;;21.50;11.77;;;17.90;99.90;;;;;;4964858;28;20558;-74
2023/05/30 01:42:23;;;;;;;25.30;10.77;;;17.80;99.90;;;;;;4974471;28;20193;-76
2023/05/30 01:44:55;;;;;;;27.33;10.53;;;17.90;99.90;;;;;;4890909;29;20263;-74
2023/05/30 01:47:41;;;;;;;22.33;10.90;;;17.90;99.90;;;;;;4976499;28;20193;-73
2023/05/30 01:50:17;;;;;;;21.67;10.87;;;17.90;99.90;;;;;;4958130;28;20195;-74
2023/05/30 01:52:59;;;;;;;18.47;10.40;;;17.80;99.90;;;;;;4950423;28;20190;-74
2023/05/30 01:55:28;;;;;;;18.40;10.13;;;17.80;99.90;;;;;;4958695;28;20221;-74
2023/05/30 01:57:58;;;;;;;21.57;11.00;;;17.80;99.90;;;;;;4962740;28;20190;-74
2023/05/30 02:00:26;;;;;;;22.63;10.23;;;17.80;99.90;;;;;;4946909;28;20194;-74
2023/05/30 02:02:53;;;;;;;21.63;11.47;;;17.70;99.90;;;;;;4964385;28;20245;-74
2023/05/30 02:05:19;;;;;;;22.70;10.97;;;17.60;99.90;;;;;;4960242;28;20194;-74
2023/05/30 02:07:46;;;;;;;24.17;10.67;;;17.70;99.90;;;;;;4961458;28;20197;-74
2023/05/30 02:10:12;;;;;;;21.10;10.77;;;17.60;99.90;;;;;;4962600;28;20190;-74
2023/05/30 02:12:38;;;;;;;24.97;11.27;;;17.60;99.90;;;;;;4944134;28;20185;-74
2023/05/30 02:15:05;;;;;;;20.73;12.00;;;17.60;99.90;;;;;;4974611;28;20202;-74
2023/05/30 02:17:32;;;;;;;30.23;11.20;;;17.60;99.90;;;;;;4958820;28;20195;-73
2023/05/30 02:19:59;;;;;;;29.40;11.00;;;17.60;99.90;;;;;;4962087;28;20198;-74
2023/05/30 02:22:25;;;;;;;28.87;11.70;;;17.60;99.90;;;;;;4989285;28;20565;-74
2023/05/30 02:24:52;;;;;;;23.60;11.57;;;17.60;99.90;;;;;;4957579;28;20202;-74
2023/05/30 02:27:18;;;;;;;20.57;11.03;;;17.60;99.90;;;;;;4961975;28;20831;-74
2023/05/30 02:29:44;;;;;;;22.00;12.00;;;17.50;99.90;;;;;;4960377;28;20289;-74
2023/05/30 02:32:10;;;;;;;22.30;10.87;;;17.50;99.90;;;;;;4965141;28;20202;-74
2023/05/30 02:34:37;;;;;;;21.70;10.50;;;17.50;99.90;;;;;;4984343;28;20202;-74
2023/05/30 02:37:04;;;;;;;19.00;10.03;;;17.50;99.90;;;;;;4966898;28;20244;-74
2023/05/30 02:39:32;;;;;;;21.43;10.90;;;17.50;99.90;;;;;;4978463;28;20210;-74
2023/05/30 02:41:58;;;;;;;19.17;10.27;;;17.50;99.90;;;;;;4961540;28;20282;-74
2023/05/30 02:44:26;;;;;;;26.33;10.87;;;17.50;99.90;;;;;;4961325;28;20856;-74
2023/05/30 02:46:52;;;;;;;20.53;10.27;;;17.60;99.90;;;;;;4960603;28;20217;-74
2023/05/30 02:49:19;;;;;;;25.83;10.80;;;17.60;99.90;;;;;;4965938;28;20677;-75
2023/05/30 02:51:45;;;;;;;21.13;10.80;;;17.50;99.90;;;;;;4967252;28;20186;-75
2023/05/30 02:54:11;;;;;;;21.20;10.83;;;17.60;99.90;;;;;;4953978;28;20653;-76
2023/05/30 02:56:37;;;;;;;21.17;11.17;;;17.50;99.90;;;;;;4960019;28;20194;-75
2023/05/30 02:59:04;;;;;;;22.40;11.50;;;17.40;99.90;;;;;;4986447;28;20209;-75
2023/05/30 03:01:30;;;;;;;16.63;10.47;;;17.40;99.90;;;;;;4957148;28;20283;-74
2023/05/30 03:03:56;;;;;;;19.93;11.03;;;17.50;99.90;;;;;;4964354;28;20671;-74
2023/05/30 03:06:24;;;;;;;24.03;11.90;;;17.50;99.90;;;;;;4967572;28;20256;-75
2023/05/30 03:08:59;;;;;;;20.13;10.37;;;17.50;99.90;;;;;;4963459;28;20252;-74
2023/05/30 03:11:25;;;;;;;20.53;10.50;;;17.40;99.90;;;;;;4960542;28;20284;-75
2023/05/30 03:13:52;;;;;;;25.87;11.40;;;17.40;99.90;;;;;;4959182;28;20198;-75
2023/05/30 03:16:19;;;;;;;24.63;11.07;;;17.50;99.90;;;;;;4956304;28;20329;-75
2023/05/30 03:18:45;;;;;;;16.13;10.67;;;17.40;99.90;;;;;;4955335;28;20195;-75
2023/05/30 03:21:11;;;;;;;21.80;10.57;;;17.50;99.90;;;;;;4949775;28;20276;-75
2023/05/30 03:23:38;;;;;;;25.13;10.70;;;17.50;99.90;;;;;;4957798;28;20218;-75
2023/05/30 03:26:06;;;;;;;22.37;11.13;;;17.50;99.90;;;;;;4946115;28;20282;-75
2023/05/30 03:28:33;;;;;;;22.73;11.40;;;17.50;99.90;;;;;;4967652;28;20204;-75
2023/05/30 03:31:00;;;;;;;23.23;10.77;;;17.50;99.90;;;;;;4963206;28;20206;-75
2023/05/30 03:33:28;;;;;;;19.03;10.43;;;17.50;99.90;;;;;;4957560;28;20195;-75
2023/05/30 03:35:54;;;;;;;23.57;11.50;;;17.50;99.90;;;;;;4967233;28;20206;-75
2023/05/30 03:38:21;;;;;;;20.17;10.87;;;17.50;99.90;;;;;;4966981;28;20256;-75
2023/05/30 03:40:47;;;;;;;19.23;10.93;;;17.60;99.90;;;;;;4980028;28;20190;-75
2023/05/30 03:43:14;;;;;;;17.00;10.43;;;17.60;99.90;;;;;;4962228;28;20886;-75
2023/05/30 03:45:40;;;;;;;21.23;10.70;;;17.60;99.90;;;;;;4959924;28;20911;-75
2023/05/30 03:48:06;;;;;;;20.83;10.97;;;17.60;99.90;;;;;;4962175;28;20197;-75
2023/05/30 03:50:33;;;;;;;22.90;11.50;;;17.60;99.90;;;;;;4960887;28;20557;-75
2023/05/30 03:52:59;;;;;;;18.87;11.40;;;17.60;99.90;;;;;;4946867;28;20190;-75
2023/05/30 03:55:25;;;;;;;21.53;10.27;;;17.60;99.90;;;;;;4957089;28;20240;-75
2023/05/30 03:57:52;;;;;;;16.93;10.53;;;17.60;99.90;;;;;;4958009;28;20195;-74
2023/05/30 04:00:18;;;;;;;23.53;11.87;;;17.60;99.90;;;;;;4942274;28;20337;-75
2023/05/30 04:02:44;;;;;;;19.30;11.53;;;17.60;99.90;;;;;;4959710;28;20201;-75
2023/05/30 04:05:11;;;;;;;18.60;11.03;;;17.60;99.90;;;;;;4958335;28;20194;-75
2023/05/30 04:07:37;;;;;;;24.23;11.80;;;17.60;99.90;;;;;;4960287;28;20204;-75
2023/05/30 04:10:04;;;;;;;22.67;11.60;;;17.70;99.90;;;;;;4958379;28;20266;-75
2023/05/30 04:12:30;;;;;;;25.23;11.57;;;17.70;99.90;;;;;;4958234;28;20191;-75
2023/05/30 04:14:56;;;;;;;20.93;11.70;;;17.70;99.90;;;;;;4958903;28;20202;-75
2023/05/30 04:17:22;;;;;;;21.63;11.87;;;17.80;99.90;;;;;;4962467;28;20213;-76
2023/05/30 04:19:52;;;;;;;19.50;12.17;;;17.80;99.90;;;;;;4958610;28;20201;-75
2023/05/30 04:22:18;;;;;;;26.87;12.07;;;17.80;99.90;;;;;;4959163;28;20221;-75
2023/05/30 04:24:45;;;;;;;24.07;13.83;;;17.80;99.90;;;;;;4963050;28;20239;-75
2023/05/30 04:27:13;;;;;;;25.23;12.73;;;17.90;99.90;;;;;;4947803;28;20197;-75
2023/05/30 04:29:43;;;;;;;26.17;13.37;;;17.90;99.90;;;;;;4958203;28;20278;-75
2023/05/30 04:32:09;;;;;;;24.37;13.30;;;18.00;99.90;;;;;;4965253;28;20282;-75
2023/05/30 04:34:35;;;;;;;29.63;13.17;;;18.00;99.90;;;;;;4959995;28;20179;-75
2023/05/30 04:37:04;;;;;;;27.37;13.40;;;18.00;99.90;;;;;;4946487;28;20186;-75
2023/05/30 04:39:30;;;;;;;26.50;12.53;;;18.10;99.90;;;;;;4960566;28;20194;-75
2023/05/30 04:41:57;;;;;;;29.77;12.60;;;18.10;99.90;;;;;;4957268;28;20199;-76
2023/05/30 04:44:23;;;;;;;34.30;14.20;;;18.20;99.90;;;;;;4961719;28;20220;-76
2023/05/30 04:46:49;;;;;;;17.63;11.83;;;18.30;99.90;;;;;;4959535;28;20225;-76
2023/05/30 04:49:16;;;;;;;22.03;13.33;;;18.30;99.90;;;;;;4963403;28;20206;-76
2023/05/30 04:51:46;;;;;;;28.90;13.17;;;18.40;99.90;;;;;;4962380;28;20306;-76
2023/05/30 04:54:13;;;;;;;26.40;12.50;;;18.40;99.90;;;;;;4962185;28;20194;-76
2023/05/30 04:56:40;;;;;;;25.80;12.20;;;18.50;99.90;;;;;;4951954;28;20285;-77
2023/05/30 04:59:06;;;;;;;24.73;12.27;;;18.50;99.90;;;;;;4958748;28;20253;-77
2023/05/30 05:01:35;;;;;;;26.80;12.80;;;18.60;99.90;;;;;;4958902;28;20214;-75
2023/05/30 05:04:02;;;;;;;25.93;12.53;;;18.60;99.90;;;;;;4941778;28;20577;-75
2023/05/30 05:06:29;;;;;;;24.00;11.63;;;18.70;99.90;;;;;;4959699;28;20194;-75
2023/05/30 05:08:57;;;;;;;24.47;11.47;;;18.70;99.90;;;;;;4959989;28;20218;-74
2023/05/30 05:11:24;;;;;;;25.53;11.40;;;18.70;99.90;;;;;;4960721;28;20195;-74
2023/05/30 05:13:50;;;;;;;28.07;11.87;;;18.80;99.90;;;;;;4963328;28;20212;-74
2023/05/30 05:16:16;;;;;;;19.87;11.43;;;18.80;99.90;;;;;;4955254;28;20205;-74
2023/05/30 05:18:42;;;;;;;25.50;12.10;;;18.90;99.90;;;;;;4956095;28;20230;-74
2023/05/30 05:21:10;;;;;;;28.37;11.67;;;18.90;99.90;;;;;;4957114;28;20208;-74
2023/05/30 05:23:36;;;;;;;22.67;10.90;;;18.90;99.90;;;;;;4986727;28;20221;-74
2023/05/30 05:26:02;;;;;;;31.00;10.40;;;19.00;99.90;;;;;;4957585;28;20277;-74
2023/05/30 05:28:28;;;;;;;30.63;10.97;;;19.00;99.90;;;;;;4964137;28;20190;-74
2023/05/30 05:30:55;;;;;;;21.73;11.70;;;19.00;99.90;;;;;;4959003;28;20683;-75
2023/05/30 05:33:21;;;;;;;23.03;10.70;;;19.10;99.90;;;;;;4944965;28;20201;-76
2023/05/30 05:35:48;;;;;;;18.57;9.80;;;19.10;99.90;;;;;;4953501;28;20195;-76
2023/05/30 05:38:16;;;;;;;20.90;10.47;;;19.20;99.90;;;;;;4956366;28;20212;-76
2023/05/30 05:40:43;;;;;;;20.63;10.53;;;19.30;99.90;;;;;;4962037;28;20194;-76
2023/05/30 05:43:09;;;;;;;24.67;9.87;;;19.30;99.90;;;;;;4944231;28;22288;-76
2023/05/30 05:45:35;;;;;;;23.37;10.23;;;19.30;99.90;;;;;;4954894;28;20195;-76
2023/05/30 05:48:02;;;;;;;22.90;10.10;;;19.40;99.90;;;;;;4955310;28;20537;-75
2023/05/30 05:50:28;;;;;;;16.87;9.50;;;19.50;99.90;;;;;;4959230;28;21093;-75
2023/05/30 05:52:55;;;;;;;16.70;9.27;;;19.40;99.90;;;;;;4958822;28;20190;-75
2023/05/30 05:55:21;;;;;;;23.20;11.03;;;19.40;99.90;;;;;;4963169;28;20229;-75
2023/05/30 05:57:47;;;;;;;23.70;9.90;;;19.40;99.90;;;;;;4962202;28;20191;-75
2023/05/30 06:00:15;;;;;;;23.77;10.30;;;19.40;99.90;;;;;;4956940;28;20190;-75
2023/05/30 06:02:41;;;;;;;23.07;11.13;;;19.40;99.90;;;;;;4961810;28;20190;-75
2023/05/30 06:05:08;;;;;;;18.13;9.67;;;19.50;99.90;;;;;;4961594;28;20248;-75
2023/05/30 06:07:35;;;;;;;19.53;10.20;;;19.50;99.90;;;;;;4971408;28;20316;-75
2023/05/30 06:10:01;;;;;;;19.57;9.57;;;19.60;99.90;;;;;;4958823;28;20190;-74
2023/05/30 06:12:27;;;;;;;16.20;8.70;;;19.60;99.90;;;;;;4956771;28;20202;-74
2023/05/30 06:14:54;;;;;;;24.40;9.60;;;19.60;99.90;;;;;;4972956;28;20206;-75
2023/05/30 06:17:20;;;;;;;18.97;9.93;;;19.70;99.90;;;;;;4944206;28;20198;-75
2023/05/30 06:19:49;;;;;;;16.50;9.60;;;19.70;99.90;;;;;;4957747;28;20285;-74
2023/05/30 06:22:15;;;;;;;22.33;9.30;;;19.70;99.90;;;;;;4962188;28;20238;-73
2023/05/30 06:24:42;;;;;;;18.70;9.00;;;19.70;99.90;;;;;;4962376;28;20210;-74
2023/05/30 06:27:08;;;;;;;12.37;8.33;;;19.70;99.90;;;;;;4961106;28;20193;-74
2023/05/30 06:29:35;;;;;;;17.80;8.80;;;19.80;99.90;;;;;;4975130;28;20273;-73
2023/05/30 06:32:02;;;;;;;20.20;8.57;;;19.90;99.90;;;;;;4959211;28;20198;-73
2023/05/30 06:34:28;;;;;;;19.00;9.40;;;20.00;99.90;;;;;;4957263;28;20194;-73
2023/05/30 06:36:55;;;;;;;18.40;8.83;;;20.10;99.90;;;;;;4955450;28;20778;-73
2023/05/30 06:39:21;;;;;;;20.47;9.20;;;20.20;99.90;;;;;;4954802;28;20249;-73
2023/05/30 06:41:48;;;;;;;16.67;9.17;;;20.30;99.90;;;;;;4940660;28;20203;-73
2023/05/30 06:44:14;;;;;;;15.23;8.73;;;20.30;99.90;;;;;;4970092;28;20218;-73
2023/05/30 06:46:41;;;;;;;21.23;8.47;;;20.50;99.90;;;;;;4957662;28;20209;-73
2023/05/30 06:49:07;;;;;;;18.33;8.07;;;20.60;99.90;;;;;;4959486;28;20801;-73
2023/05/30 06:51:33;;;;;;;16.47;8.33;;;20.70;99.90;;;;;;4951439;28;20508;-74
2023/05/30 06:54:00;;;;;;;14.97;7.77;;;20.70;99.90;;;;;;4956764;28;20234;-74
2023/05/30 06:56:26;;;;;;;18.43;8.43;;;20.90;99.90;;;;;;4954761;28;20210;-74
2023/05/30 06:58:54;;;;;;;17.20;7.97;;;20.90;99.90;;;;;;4962026;28;20189;-74
2023/05/30 07:01:20;;;;;;;15.30;7.13;;;21.00;99.90;;;;;;4955199;28;20210;-73
2023/05/30 07:03:47;;;;;;;15.00;7.73;;;21.10;99.90;;;;;;4943171;28;20276;-74
2023/05/30 07:06:13;;;;;;;13.70;7.77;;;21.10;99.90;;;;;;4970162;28;20186;-74
2023/05/30 07:08:40;;;;;;;14.83;7.50;;;21.10;99.90;;;;;;4952355;28;20717;-74
2023/05/30 07:11:09;;;;;;;15.17;7.70;;;21.00;99.90;;;;;;4972327;28;20308;-74
2023/05/30 07:13:35;;;;;;;16.80;8.40;;;21.00;99.90;;;;;;4983190;28;21140;-75
2023/05/30 07:16:02;;;;;;;15.47;7.90;;;21.00;99.90;;;;;;4967480;28;20274;-74
2023/05/30 07:18:28;;;;;;;16.10;8.17;;;20.90;99.90;;;;;;4964780;28;20237;-75
2023/05/30 07:20:54;;;;;;;13.07;8.57;;;20.90;99.90;;;;;;4971940;28;20265;-75
2023/05/30 07:23:20;;;;;;;18.60;7.90;;;20.90;99.90;;;;;;4962828;28;20783;-75
2023/05/30 07:25:47;;;;;;;18.03;9.53;;;20.90;99.90;;;;;;4965183;28;20187;-75
2023/05/30 07:28:13;;;;;;;18.90;9.50;;;20.80;99.90;;;;;;4962200;28;20201;-75
2023/05/30 07:30:39;;;;;;;17.27;8.80;;;20.80;99.90;;;;;;4964593;28;20201;-75
2023/05/30 07:33:05;;;;;;;13.97;8.27;;;20.90;99.90;;;;;;4961355;28;20196;-75
2023/05/30 07:35:32;;;;;;;13.83;8.87;;;20.90;99.90;;;;;;4956882;28;20269;-75
2023/05/30 07:37:58;;;;;;;17.70;7.90;;;21.00;99.90;;;;;;4961186;28;20456;-75
2023/05/30 07:40:24;;;;;;;17.60;8.40;;;21.10;99.90;;;;;;4954248;28;20561;-75
2023/05/30 07:42:51;;;;;;;18.33;8.33;;;21.20;99.90;;;;;;4956224;28;20191;-75
2023/05/30 07:45:19;;;;;;;16.20;8.17;;;21.30;99.90;;;;;;4966637;28;20782;-75
2023/05/30 07:47:45;;;;;;;16.50;8.07;;;21.40;99.90;;;;;;4958563;28;20194;-75
2023/05/30 07:50:12;;;;;;;18.87;8.07;;;21.50;99.90;;;;;;4968072;28;20522;-75
2023/05/30 07:52:39;;;;;;;12.90;7.40;;;21.50;99.90;;;;;;4969036;28;20289;-75
2023/05/30 07:55:05;;;;;;;19.98;8.45;;;21.70;99.90;;;;;;4961143;28;20190;-75
2023/05/30 07:57:32;;;;;;;17.97;8.80;;;21.70;99.90;;;;;;4988289;28;20568;-74
2023/05/30 07:59:59;;;;;;;15.13;7.50;;;21.70;99.90;;;;;;4963713;28;20619;-76
2023/05/30 08:02:25;;;;;;;21.70;8.50;;;21.90;99.90;;;;;;4957936;28;20199;-76
2023/05/30 08:04:53;;;;;;;19.67;8.57;;;22.20;99.90;;;;;;4962807;28;20218;-75
2023/05/30 08:07:19;;;;;;;15.27;7.72;;;22.30;99.90;;;;;;4975088;28;20264;-76
2023/05/30 08:09:46;;;;;;;14.52;7.60;;;22.50;99.90;;;;;;4977654;28;20198;-76
2023/05/30 08:12:20;;;;;;;14.98;7.80;;;22.70;99.90;;;;;;4964674;28;20186;-76
2023/05/30 08:14:47;;;;;;;15.98;8.15;;;22.80;99.90;;;;;;4967147;28;20196;-75
2023/05/30 08:17:15;;;;;;;23.92;8.40;;;22.80;99.90;;;;;;4969619;28;20228;-75
2023/05/30 08:19:42;;;;;;;16.33;7.82;;;22.80;99.90;;;;;;4964604;28;20276;-74
2023/05/30 08:22:10;;;;;;;16.45;7.93;;;22.80;99.90;;;;;;4964229;28;20202;-74
2023/05/30 08:24:37;;;;;;;13.50;7.45;;;22.60;99.90;;;;;;4988673;28;20230;-74
2023/05/30 08:27:04;;;;;;;14.60;7.20;;;22.70;99.90;;;;;;4948019;28;20248;-74
2023/05/30 08:29:33;;;;;;;19.08;7.75;;;22.80;99.90;;;;;;4965403;28;20182;-74
2023/05/30 08:31:59;;;;;;;18.38;8.23;;;22.80;99.90;;;;;;4988391;28;20202;-74
2023/05/30 08:34:26;;;;;;;14.35;7.90;;;22.90;99.90;;;;;;4974731;28;20680;-76
2023/05/30 08:36:53;;;;;;;16.00;7.03;;;22.90;99.90;;;;;;4963939;28;20747;-78
2023/05/30 08:39:20;;;;;;;20.42;7.82;;;23.00;99.90;;;;;;4958232;28;20202;-79
2023/05/30 08:41:47;;;;;;;19.67;8.02;;;23.00;99.90;;;;;;4957677;28;20198;-76
2023/05/30 08:44:13;;;;;;;12.95;7.15;;;22.90;99.90;;;;;;4954385;28;20576;-77
2023/05/30 08:46:45;;;;;;;14.50;7.10;;;23.00;99.90;;;;;;4958108;28;20199;-77
2023/05/30 08:49:21;;;;;;;17.90;7.68;;;23.10;99.90;;;;;;4959788;28;20213;-77
2023/05/30 08:51:50;;;;;;;18.88;7.68;;;23.30;99.90;;;;;;4962194;28;20195;-77
2023/05/30 08:54:22;;;;;;;18.23;7.82;;;23.40;99.90;;;;;;4965203;28;20247;-77
2023/05/30 08:57:14;;;;;;;17.75;7.78;;;23.50;99.90;;;;;;4951694;28;20186;-77
2023/05/30 08:59:43;;;;;;;14.95;7.28;;;23.60;99.90;;;;;;4948620;28;20992;-77
2023/05/30 09:02:12;;;;;;;15.90;7.43;;;23.60;99.90;;;;;;4967602;28;20195;-77
2023/05/30 09:04:40;;;;;;;19.73;7.03;;;23.60;99.90;;;;;;4980662;28;20224;-77
2023/05/30 09:07:07;;;;;;;14.82;7.10;;;23.50;99.90;;;;;;4957744;28;20885;-77
2023/05/30 09:09:35;;;;;;;18.45;7.63;;;23.30;99.90;;;;;;4952054;28;20272;-77
2023/05/30 09:12:02;;;;;;;17.20;7.18;;;23.30;99.90;;;;;;4953299;28;20916;-76
2023/05/30 09:14:29;;;;;;;16.13;6.28;;;23.50;99.90;;;;;;4943460;28;20200;-76
2023/05/30 09:16:55;;;;;;;12.23;6.75;;;23.60;99.90;;;;;;4955486;28;20550;-77
2023/05/30 09:19:22;;;;;;;12.57;6.63;;;23.70;99.90;;;;;;4958415;28;20269;-77
2023/05/30 09:21:49;;;;;;;14.02;6.20;;;23.90;99.90;;;;;;4959815;28;20206;-76
2023/05/30 09:24:16;;;;;;;15.40;6.72;;;23.90;99.90;;;;;;4958444;28;20221;-77
2023/05/30 09:27:01;;;;;;;18.13;7.63;;;24.00;99.90;;;;;;4955867;28;20182;-76
2023/05/30 09:29:28;;;;;;;22.10;6.78;;;24.00;99.90;;;;;;4975092;28;20193;-77
2023/05/30 09:31:56;;;;;;;16.38;7.18;;;24.00;99.90;;;;;;4949250;28;20190;-76
2023/05/30 09:34:22;;;;;;;16.55;7.00;;;24.00;99.90;;;;;;4956996;28;20221;-76
2023/05/30 09:36:55;;;;;;;17.98;7.50;;;24.00;99.90;;;;;;4957240;28;20289;-77
2023/05/30 09:39:25;;;;;;;17.67;7.00;;;23.90;99.90;;;;;;4950179;28;20197;-76
2023/05/30 09:41:57;;;;;;;16.58;6.95;;;23.90;99.90;;;;;;4953824;28;20673;-76
2023/05/30 09:44:23;;;;;;;14.88;6.95;;;23.90;99.90;;;;;;4957968;28;20197;-76
2023/05/30 09:46:56;;;;;;;16.83;7.18;;;24.00;99.90;;;;;;4956534;28;20194;-77
2023/05/30 09:49:23;;;;;;;12.98;6.32;;;23.90;99.90;;;;;;4956748;28;20280;-77
2023/05/30 09:51:50;;;;;;;11.98;6.10;;;24.10;99.90;;;;;;4962302;28;20244;-77
2023/05/30 09:54:18;;;;;;;12.25;6.35;;;24.40;99.90;;;;;;4953199;28;20197;-76
2023/05/30 09:56:45;;;;;;;11.55;6.13;;;24.70;99.90;;;;;;4957184;28;20265;-76
2023/05/30 09:59:13;;;;;;;12.77;6.45;;;24.90;99.90;;;;;;4960693;28;20236;-77
2023/05/30 10:01:44;;;;;;;14.63;6.72;;;25.10;99.90;;;;;;4958747;28;20198;-77
2023/05/30 10:04:22;;;;;;;16.52;6.68;;;25.10;99.90;;;;;;4962441;28;20549;-77
2023/05/30 10:06:52;;;;;;;21.65;7.75;;;25.10;99.90;;;;;;4961203;28;20186;-77
2023/05/30 10:09:23;;;;;;;13.80;6.50;;;25.10;99.90;;;;;;4961387;28;20765;-77
2023/05/30 10:11:51;;;;;;;12.07;6.60;;;25.10;99.90;;;;;;4973922;28;20284;-77
2023/05/30 10:14:18;;;;;;;16.25;6.40;;;24.90;99.90;;;;;;4956347;28;20213;-77
2023/05/30 10:17:03;;;;;;;14.80;6.15;;;24.70;99.90;;;;;;4960940;28;20257;-77
2023/05/30 10:19:40;;;;;;;15.00;5.97;;;24.50;99.90;;;;;;4954613;28;20281;-77
2023/05/30 10:22:09;;;;;;;13.23;6.53;;;24.30;99.90;;;;;;4944633;28;20196;-77
2023/05/30 10:24:37;;;;;;;12.40;6.72;;;24.10;99.90;;;;;;4952340;28;20214;-77
2023/05/30 10:27:04;;;;;;;11.50;6.22;;;24.10;99.90;;;;;;4961301;28;20545;-77
2023/05/30 10:30:08;;;;;;;13.98;6.38;;;24.00;99.90;;;;;;4963509;28;20225;-76
2023/05/30 10:32:43;;;;;;;15.82;7.05;;;23.90;99.90;;;;;;4972346;28;20178;-77
2023/05/30 10:35:17;;;;;;;15.07;7.15;;;23.90;99.90;;;;;;4958495;28;20233;-76
2023/05/30 10:37:46;;;;;;;15.52;6.68;;;23.80;99.90;;;;;;4955022;28;20962;-76
2023/05/30 10:41:00;;;;;;;10.90;5.85;;;23.70;99.90;;;;;;4975153;28;20190;-76
2023/05/30 10:44:20;;;;;;;11.57;6.47;;;23.60;99.90;;;;;;4955960;28;20206;-77
2023/05/30 10:47:07;;;;;;;17.13;6.93;;;23.60;99.90;;;;;;4949049;28;20195;-77
2023/05/30 10:49:36;;;;;;;14.52;6.63;;;23.60;99.90;;;;;;4953767;28;20205;-76
2023/05/30 10:52:09;;;;;;;13.05;5.95;;;23.70;99.90;;;;;;4953518;28;20197;-76
2023/05/30 10:54:37;;;;;;;15.02;6.45;;;23.70;99.90;;;;;;4958554;28;20539;-76
2023/05/30 10:57:31;;;;;;;14.13;5.55;;;23.70;99.90;;;;;;4950642;28;20313;-77
2023/05/30 11:00:09;;;;;;;10.98;5.05;;;23.70;99.90;;;;;;4980034;28;20198;-76
2023/05/30 11:02:38;;;;;;;11.38;5.63;;;23.70;99.90;;;;;;4951882;28;20272;-77
2023/05/30 11:05:20;;;;;;;11.30;5.60;;;23.80;99.90;;;;;;4983783;28;20296;-77
2023/05/30 11:07:46;;;;;;;15.35;6.05;;;23.70;99.90;;;;;;4948551;28;20190;-77
2023/05/30 11:10:13;;;;;;;14.52;6.30;;;23.60;99.90;;;;;;4983667;28;20530;-77
2023/05/30 11:12:48;;;;;;;10.48;5.90;;;23.60;99.90;;;;;;4944711;28;20651;-77
2023/05/30 11:15:30;;;;;;;17.73;5.28;;;23.60;99.90;;;;;;4963902;28;20193;-77
2023/05/30 11:17:56;;;;;;;11.30;5.63;;;23.70;99.90;;;;;;4956121;28;20970;-77
2023/05/30 11:20:23;;;;;;;11.07;5.70;;;23.80;99.90;;;;;;4957729;28;20194;-77
2023/05/30 11:23:01;;;;;;;11.55;5.80;;;23.80;99.90;;;;;;4959466;28;20264;-77
2023/05/30 11:25:33;;;;;;;15.50;5.68;;;23.80;99.90;;;;;;4974626;28;20309;-77
2023/05/30 11:28:15;;;;;;;14.95;5.82;;;23.80;99.90;;;;;;4960246;28;20218;-77
2023/05/30 11:30:48;;;;;;;12.43;5.55;;;23.80;99.90;;;;;;4960720;28;20452;-77
2023/05/30 11:33:18;;;;;;;11.35;5.03;;;24.00;99.90;;;;;;4959115;28;20275;-77
2023/05/30 11:35:49;;;;;;;12.00;5.57;;;24.00;99.90;;;;;;4961389;28;20193;-77
2023/05/30 11:38:24;;;;;;;15.48;5.80;;;24.00;99.90;;;;;;4968170;28;20213;-77
2023/05/30 11:40:51;;;;;;;10.90;5.20;;;23.90;99.90;;;;;;4952936;28;20869;-77
2023/05/30 11:43:17;;;;;;;8.80;5.43;;;23.80;99.90;;;;;;4975592;28;20233;-77
2023/05/30 11:45:53;;;;;;;12.95;5.85;;;23.80;99.90;;;;;;4957111;28;20179;-77
2023/05/30 11:48:20;;;;;;;11.77;5.80;;;23.90;99.90;;;;;;4959214;28;20732;-77
2023/05/30 11:50:46;;;;;;;8.43;4.85;;;23.80;99.90;;;;;;4960140;28;20178;-77
2023/05/30 11:53:18;;;;;;;9.85;4.47;;;23.80;99.90;;;;;;4959656;28;20222;-77
2023/05/30 11:55:49;;;;;;;12.20;5.18;;;23.90;99.90;;;;;;4959769;28;20185;-77
2023/05/30 11:58:17;;;;;;;17.20;5.82;;;23.90;99.90;;;;;;4955889;28;20669;-77
2023/05/30 12:00:44;;;;;;;10.10;5.28;;;23.80;99.90;;;;;;4987040;28;20217;-78
2023/05/30 12:03:16;;;;;;;9.75;5.60;;;23.70;99.90;;;;;;4963882;28;20763;-77
2023/05/30 12:05:45;;;;;;;6.85;4.50;;;23.60;99.90;;;;;;4949733;28;20182;-77
2023/05/30 12:08:18;;;;;;;13.93;5.22;;;23.70;99.90;;;;;;4961491;28;20641;-77
2023/05/30 12:10:45;;;;;;;9.70;5.65;;;23.70;99.90;;;;;;4960807;28;20173;-77
2023/05/30 12:13:12;;;;;;;15.55;5.32;;;23.80;99.90;;;;;;4980454;28;20187;-77
2023/05/30 12:15:38;;;;;;;9.60;5.38;;;23.80;99.90;;;;;;4961615;28;20237;-78
2023/05/30 12:18:05;;;;;;;8.80;5.43;;;23.70;99.90;;;;;;4962073;28;20240;-77
2023/05/30 12:20:32;;;;;;;10.27;5.38;;;23.60;99.90;;;;;;4956988;28;20281;-77
2023/05/30 12:23:05;;;;;;;11.63;5.38;;;23.60;99.90;;;;;;4956182;28;20282;-77
2023/05/30 12:25:31;;;;;;;11.85;5.78;;;23.50;99.90;;;;;;4957878;28;20459;-76
2023/05/30 12:27:58;;;;;;;10.23;5.05;;;23.40;99.90;;;;;;4963082;28;20567;-76
2023/05/30 12:30:24;;;;;;;9.23;5.38;;;23.50;99.90;;;;;;4959041;28;20621;-75
2023/05/30 12:32:50;;;;;;;12.48;5.43;;;23.50;99.90;;;;;;4946625;28;20186;-75
2023/05/30 12:35:24;;;;;;;11.55;5.00;;;23.50;99.90;;;;;;4960724;28;20810;-75
2023/05/30 12:37:56;;;;;;;8.40;4.88;;;23.50;99.90;;;;;;4963004;28;20233;-75
2023/05/30 12:40:26;;;;;;;10.63;4.90;;;23.50;99.90;;;;;;4944140;28;20190;-76
2023/05/30 12:42:56;;;;;;;11.10;5.22;;;23.50;99.90;;;;;;4957336;28;20273;-75